Time;durP1;ratioP1;P1;durP2;ratioP2;P2;SDS_P1;SDS_P2;PMS_P1;PMS_P2;Temp;Humidity;BMP_temperature;BMP_pressure;BME280_temperature;BME280_humidity;BME280_pressure;Samples;Min_cycle;Max_cycle;Signal;HPM_P1;HPM_P2
2022/01/15 00:01:51;;;;;;;26.60;14.65;;;3.80;99.90;;;;;;5045031;28;20112;-79
2022/01/15 00:04:20;;;;;;;26.45;19.38;;;3.90;99.90;;;;;;5043571;28;20029;-78
2022/01/15 00:06:46;;;;;;;29.10;16.13;;;4.00;99.90;;;;;;5036537;28;20029;-78
2022/01/15 00:09:15;;;;;;;24.95;13.43;;;4.10;99.90;;;;;;5036110;28;20481;-79
2022/01/15 00:11:55;;;;;;;27.73;14.30;;;4.20;99.90;;;;;;5047446;28;20078;-78
2022/01/15 00:14:34;;;;;;;24.85;14.75;;;4.20;99.90;;;;;;5035615;28;20068;-79
2022/01/15 00:17:13;;;;;;;26.50;16.67;;;4.30;99.90;;;;;;5037231;28;20545;-79
2022/01/15 00:20:09;;;;;;;16.45;10.82;;;4.20;99.90;;;;;;5023897;28;20045;-79
2022/01/15 00:23:03;;;;;;;18.25;10.38;;;4.30;99.90;;;;;;5019111;28;20057;-79
2022/01/15 00:25:33;;;;;;;15.82;10.15;;;4.20;99.90;;;;;;5037471;28;20630;-79
2022/01/15 00:28:11;;;;;;;22.33;10.60;;;4.20;99.90;;;;;;5041569;28;20021;-78
2022/01/15 00:30:43;;;;;;;18.63;10.68;;;4.10;99.90;;;;;;5043971;28;20025;-79
2022/01/15 00:33:29;;;;;;;15.45;9.95;;;4.00;99.90;;;;;;5025888;28;20055;-79
2022/01/15 00:36:13;;;;;;;17.27;10.25;;;3.90;99.90;;;;;;5048732;28;20063;-79
2022/01/15 00:38:46;;;;;;;14.35;9.70;;;3.80;99.90;;;;;;5044445;28;20029;-79
2022/01/15 00:41:20;;;;;;;16.15;9.88;;;3.70;99.90;;;;;;5049500;28;20021;-79
2022/01/15 00:43:55;;;;;;;18.50;9.65;;;3.60;99.90;;;;;;5045377;28;20040;-79
2022/01/15 00:46:43;;;;;;;14.52;8.65;;;3.50;99.90;;;;;;5018365;28;20546;-79
2022/01/15 00:50:05;;;;;;;16.67;9.05;;;3.40;99.90;;;;;;5021869;28;20042;-79
2022/01/15 00:52:30;;;;;;;14.52;8.20;;;3.40;99.90;;;;;;5045756;28;20030;-79
2022/01/15 00:58:04;;;;;;;12.20;6.70;;;3.20;99.90;;;;;;5015167;28;20034;-79
2022/01/15 01:01:10;;;;;;;9.38;7.00;;;3.10;99.90;;;;;;5045242;28;20044;-79
2022/01/15 01:03:39;;;;;;;18.50;8.50;;;3.10;99.90;;;;;;5046248;28;20064;-79
2022/01/15 01:06:28;;;;;;;;;;;;;;;;;;;;;
2022/01/15 01:09:14;;;;;;;11.90;6.45;;;3.10;99.90;;;;;;5039183;28;20033;-79
2022/01/15 01:12:31;;;;;;;11.93;6.75;;;3.10;99.90;;;;;;5013247;28;20034;-79
2022/01/15 01:29:10;;;;;;;;;;;;;;;;;;;;;
2022/01/15 01:41:34;;;;;;;;;;;;;;;;;;;;;
2022/01/15 01:44:39;;;;;;;9.90;5.85;;;3.10;99.90;;;;;;4969781;28;20042;-79
2022/01/15 01:54:53;;;;;;;;;;;;;;;;;;;;;
2022/01/15 02:17:47;;;;;;;8.40;5.80;;;3.40;99.90;;;;;;4834484;29;20094;-79
2022/01/15 02:58:04;;;;;;;16.40;9.30;;;3.30;99.90;;;;;;5035277;28;20468;-79
2022/01/15 03:29:26;;;;;;;;;;;;;;;;;;;;;
2022/01/15 03:46:27;;;;;;;21.00;12.95;;;3.20;99.90;;;;;;4947033;28;20034;-78
2022/01/15 03:59:42;;;;;;;;;;;;;;;;;;;;;
2022/01/15 04:02:30;;;;;;;25.38;11.95;;;4.00;99.90;;;;;;4820332;29;20619;-78
2022/01/15 04:12:27;;;;;;;18.92;12.18;;;3.90;99.90;;;;;;4836505;29;20131;-78
2022/01/15 04:15:26;;;;;;;22.80;11.82;;;4.00;99.90;;;;;;4831669;29;20049;-77
2022/01/15 04:24:45;;;;;;;18.15;12.38;;;4.40;99.90;;;;;;4931536;29;20047;-79
2022/01/15 04:31:26;;;;;;;20.48;12.85;;;4.40;99.90;;;;;;4933981;29;20049;-78
2022/01/15 04:34:36;;;;;;;26.38;11.65;;;4.30;99.90;;;;;;4962628;28;20034;-79
2022/01/15 04:37:52;;;;;;;16.13;10.90;;;4.30;99.90;;;;;;4955907;28;20510;-78
2022/01/15 04:43:19;;;;;;;21.38;12.95;;;4.10;99.90;;;;;;4942092;28;20023;-79
2022/01/15 04:46:14;;;;;;;18.75;12.55;;;4.10;99.90;;;;;;5015612;28;20124;-78
2022/01/15 04:49:02;;;;;;;19.20;12.73;;;4.10;99.90;;;;;;5018486;28;20073;-78
2022/01/15 04:51:41;;;;;;;16.85;10.93;;;4.10;99.90;;;;;;5026748;28;20026;-79
2022/01/15 04:54:10;;;;;;;19.67;13.48;;;4.00;99.90;;;;;;5016426;28;20112;-79
2022/01/15 04:56:52;;;;;;;22.77;13.88;;;3.90;99.90;;;;;;5026043;28;20042;-79
2022/01/15 04:59:23;;;;;;;17.65;12.35;;;4.00;99.90;;;;;;5016397;28;20029;-78
2022/01/15 05:02:10;;;;;;;22.58;14.75;;;4.00;99.90;;;;;;5037087;28;20056;-79
2022/01/15 05:04:48;;;;;;;21.77;13.52;;;4.00;99.90;;;;;;5043663;28;20029;-78
2022/01/15 05:07:23;;;;;;;27.73;14.40;;;4.00;99.90;;;;;;5017768;28;20107;-79
2022/01/15 05:09:58;;;;;;;24.55;15.05;;;4.10;99.90;;;;;;5020383;28;20021;-79
2022/01/15 05:12:47;;;;;;;19.30;12.93;;;4.20;99.90;;;;;;5026776;28;20022;-79
2022/01/15 05:15:44;;;;;;;18.83;12.63;;;4.40;99.90;;;;;;5037834;28;20117;-79
2022/01/15 05:18:53;;;;;;;21.02;11.95;;;4.40;99.90;;;;;;5041974;28;20475;-78
2022/01/15 05:21:25;;;;;;;21.55;13.48;;;4.30;99.90;;;;;;4988452;28;20025;-79
2022/01/15 05:23:59;;;;;;;18.38;12.65;;;4.30;99.90;;;;;;5046520;28;20060;-79
2022/01/15 05:26:47;;;;;;;21.00;13.93;;;4.40;99.90;;;;;;5045246;28;20480;-78
2022/01/15 05:32:59;;;;;;;20.50;13.93;;;4.50;99.90;;;;;;5044202;28;20600;-79
2022/01/15 05:35:28;;;;;;;29.17;15.23;;;4.40;99.90;;;;;;5035296;28;20087;-78
2022/01/15 05:38:00;;;;;;;31.73;19.08;;;4.70;99.90;;;;;;5042695;28;20669;-79
2022/01/15 05:40:34;;;;;;;20.25;11.80;;;4.70;99.90;;;;;;5023574;28;20060;-79
2022/01/15 05:43:00;;;;;;;23.83;14.02;;;4.50;99.90;;;;;;5043566;28;20033;-78
2022/01/15 05:45:27;;;;;;;21.17;14.18;;;4.50;99.90;;;;;;5052393;28;20048;-80
2022/01/15 05:47:55;;;;;;;20.08;13.40;;;4.70;99.90;;;;;;5024637;28;20423;-79
2022/01/15 05:50:22;;;;;;;20.98;14.48;;;4.70;99.90;;;;;;5044611;28;20044;-79
2022/01/15 05:52:48;;;;;;;25.15;15.90;;;4.70;99.90;;;;;;5042952;28;20063;-78
2022/01/15 05:55:14;;;;;;;23.20;15.23;;;4.60;99.90;;;;;;5026317;28;20033;-79
2022/01/15 05:57:45;;;;;;;26.42;15.50;;;4.80;99.90;;;;;;5043567;28;20028;-79
2022/01/15 06:00:25;;;;;;;28.35;17.67;;;4.90;99.90;;;;;;5025922;28;20490;-78
2022/01/15 06:02:51;;;;;;;40.72;26.33;;;5.00;99.90;;;;;;5026945;28;20067;-79
2022/01/15 06:05:17;;;;;;;26.08;16.63;;;5.10;99.90;;;;;;5041916;28;20029;-79
2022/01/15 06:07:43;;;;;;;32.97;24.08;;;5.10;99.90;;;;;;5025388;28;20471;-79
2022/01/15 06:10:22;;;;;;;27.63;18.50;;;5.10;99.90;;;;;;5024557;28;20029;-78
2022/01/15 06:12:53;;;;;;;21.17;14.77;;;5.00;99.90;;;;;;5038442;28;20036;-79
2022/01/15 06:15:25;;;;;;;23.07;13.10;;;5.00;99.90;;;;;;5024800;28;20068;-78
2022/01/15 06:18:39;;;;;;;16.17;10.85;;;5.00;99.90;;;;;;5021688;28;20025;-79
2022/01/15 06:21:22;;;;;;;16.17;10.70;;;5.10;99.90;;;;;;5041388;28;20033;-78
2022/01/15 06:23:54;;;;;;;11.77;7.38;;;5.20;99.90;;;;;;5046857;28;20029;-80
2022/01/15 06:26:23;;;;;;;14.63;8.15;;;5.30;99.90;;;;;;5063278;28;20021;-81
2022/01/15 06:29:09;;;;;;;11.07;6.93;;;5.60;99.90;;;;;;5048631;28;20021;-81
2022/01/15 06:31:44;;;;;;;12.30;6.20;;;5.80;99.90;;;;;;5050641;28;20052;-81
2022/01/15 06:34:13;;;;;;;9.68;6.85;;;6.00;99.90;;;;;;5064742;28;20036;-82
2022/01/15 06:36:45;;;;;;;14.88;7.10;;;6.10;99.90;;;;;;5049315;28;20025;-79
2022/01/15 06:39:16;;;;;;;8.65;6.32;;;6.10;99.90;;;;;;5037461;28;20384;-79
2022/01/15 06:41:58;;;;;;;9.55;6.05;;;6.60;99.90;;;;;;5039880;28;20037;-79
2022/01/15 06:44:30;;;;;;;9.75;6.25;;;6.80;99.90;;;;;;5032823;28;20053;-80
2022/01/15 06:46:57;;;;;;;9.10;5.85;;;6.90;99.90;;;;;;5044957;28;20026;-79
2022/01/15 06:49:23;;;;;;;10.60;6.43;;;6.90;99.90;;;;;;5038882;28;20029;-79
2022/01/15 06:51:49;;;;;;;7.63;5.50;;;6.90;99.90;;;;;;5050180;28;20356;-79
2022/01/15 06:54:27;;;;;;;8.88;5.68;;;6.90;99.90;;;;;;5019628;28;20029;-80
2022/01/15 06:56:54;;;;;;;6.60;5.45;;;6.90;99.90;;;;;;5035971;28;20033;-79
2022/01/15 06:59:28;;;;;;;11.30;6.30;;;6.90;99.90;;;;;;5038133;28;20083;-80
2022/01/15 07:02:00;;;;;;;7.80;5.60;;;6.90;99.90;;;;;;5046416;28;20057;-80
2022/01/15 07:04:39;;;;;;;8.70;5.63;;;6.90;99.90;;;;;;5047626;28;20124;-79
2022/01/15 07:07:11;;;;;;;8.82;6.00;;;7.00;99.90;;;;;;5044820;28;20028;-80
2022/01/15 07:09:37;;;;;;;7.68;6.20;;;7.00;99.90;;;;;;5039878;28;20032;-79
2022/01/15 07:12:04;;;;;;;10.65;6.68;;;7.10;99.90;;;;;;5044832;28;20030;-79
2022/01/15 07:14:33;;;;;;;8.73;5.88;;;7.20;99.90;;;;;;5021749;28;20033;-79
2022/01/15 07:17:05;;;;;;;10.35;6.07;;;7.20;99.90;;;;;;5045511;28;20045;-79
2022/01/15 07:19:40;;;;;;;9.20;6.70;;;7.40;99.90;;;;;;5021005;28;20582;-79
2022/01/15 07:22:08;;;;;;;12.77;7.00;;;7.60;99.90;;;;;;5024741;28;20076;-79
2022/01/15 07:24:34;;;;;;;10.57;7.43;;;7.90;99.90;;;;;;5039127;28;20013;-79
2022/01/15 07:27:03;;;;;;;13.60;7.07;;;8.10;99.90;;;;;;5045105;28;20030;-79
2022/01/15 07:29:30;;;;;;;12.20;7.28;;;8.10;99.90;;;;;;5038153;28;20025;-79
2022/01/15 07:32:03;;;;;;;9.30;6.72;;;8.10;99.90;;;;;;5047301;28;20036;-79
2022/01/15 07:34:33;;;;;;;13.13;7.07;;;8.20;99.90;;;;;;5046217;28;20033;-79
2022/01/15 07:37:24;;;;;;;10.00;7.80;;;8.20;99.90;;;;;;5030671;28;20129;-79
2022/01/15 07:39:59;;;;;;;11.80;7.25;;;8.40;99.90;;;;;;5016130;28;20064;-79
2022/01/15 07:42:27;;;;;;;12.02;7.88;;;8.50;99.90;;;;;;5037119;28;20057;-80
2022/01/15 07:45:10;;;;;;;8.50;6.80;;;8.50;99.90;;;;;;5038691;28;20124;-84
2022/01/15 07:48:05;;;;;;;12.15;7.50;;;8.60;99.90;;;;;;5045537;28;20112;-83
2022/01/15 07:50:33;;;;;;;10.68;7.22;;;8.80;99.90;;;;;;5035723;28;20025;-82
2022/01/15 07:53:11;;;;;;;11.57;7.82;;;8.90;99.90;;;;;;5043057;28;20076;-84
2022/01/15 07:55:37;;;;;;;13.20;7.88;;;9.00;99.90;;;;;;5040363;28;20040;-83
2022/01/15 07:58:14;;;;;;;9.07;7.15;;;9.10;99.90;;;;;;5039171;28;20108;-82
2022/01/15 08:00:54;;;;;;;13.65;9.07;;;9.20;99.90;;;;;;5019526;28;20026;-82
2022/01/15 08:03:20;;;;;;;13.13;7.22;;;9.30;99.90;;;;;;5024277;28;20022;-79
2022/01/15 08:05:47;;;;;;;10.25;7.15;;;9.30;99.90;;;;;;5012758;28;20047;-80
2022/01/15 08:08:29;;;;;;;12.30;8.07;;;9.40;99.90;;;;;;5022156;28;20105;-82
2022/01/15 08:10:58;;;;;;;13.02;8.00;;;9.50;99.90;;;;;;5007316;28;20035;-82
2022/01/15 08:13:25;;;;;;;15.30;7.88;;;9.50;99.90;;;;;;5008480;28;20480;-83
2022/01/15 08:15:52;;;;;;;9.88;7.57;;;9.50;99.90;;;;;;5029933;28;20068;-82
2022/01/15 08:18:21;;;;;;;23.85;8.18;;;9.60;99.90;;;;;;5018667;28;20076;-82
2022/01/15 08:20:51;;;;;;;11.43;7.63;;;9.60;99.90;;;;;;5019257;28;20053;-80
2022/01/15 08:23:20;;;;;;;14.40;8.05;;;9.70;99.90;;;;;;5025193;28;20029;-81
2022/01/15 08:25:48;;;;;;;10.90;8.05;;;9.70;99.90;;;;;;5012049;28;20024;-81
2022/01/15 08:28:34;;;;;;;12.77;7.63;;;9.70;99.90;;;;;;5027055;28;20029;-82
2022/01/15 08:31:00;;;;;;;12.32;7.97;;;9.80;99.90;;;;;;5025326;28;20499;-81
2022/01/15 08:33:34;;;;;;;10.93;7.63;;;9.90;99.90;;;;;;5003670;28;20022;-80
2022/01/15 08:36:00;;;;;;;12.57;7.65;;;9.90;99.90;;;;;;5030393;28;20064;-82
2022/01/15 08:38:40;;;;;;;;;;;;;;;;;;;;;
2022/01/15 08:41:27;;;;;;;14.77;8.07;;;9.90;99.90;;;;;;5025900;28;20018;-83
2022/01/15 08:46:56;;;;;;;11.70;7.68;;;9.90;99.90;;;;;;5018259;28;20041;-83
2022/01/15 08:49:53;;;;;;;13.43;7.80;;;10.00;99.90;;;;;;5017564;28;20025;-83
2022/01/15 08:52:22;;;;;;;10.80;7.82;;;10.00;99.90;;;;;;4999269;28;20070;-83
2022/01/15 08:55:13;;;;;;;11.88;7.97;;;10.10;99.90;;;;;;5016695;28;20026;-85
2022/01/15 08:57:42;;;;;;;13.07;7.82;;;10.10;99.90;;;;;;5023923;28;20503;-82
2022/01/15 09:00:11;;;;;;;10.32;7.35;;;10.20;99.90;;;;;;5007518;28;20061;-83
2022/01/15 09:02:38;;;;;;;15.32;8.05;;;10.20;99.90;;;;;;5048200;28;20041;-87
2022/01/15 09:05:08;;;;;;;11.90;7.93;;;10.30;99.90;;;;;;5046310;28;20028;-81
2022/01/15 09:07:35;;;;;;;18.10;7.88;;;10.30;99.90;;;;;;5027722;28;20017;-81
2022/01/15 09:10:05;;;;;;;11.18;8.10;;;10.30;99.90;;;;;;5025277;28;20029;-81
2022/01/15 09:12:31;;;;;;;16.40;7.88;;;10.40;99.90;;;;;;5031464;28;20021;-82
2022/01/15 09:15:00;;;;;;;15.15;7.72;;;10.40;99.90;;;;;;5045722;28;20021;-83
2022/01/15 09:17:27;;;;;;;20.88;9.30;;;10.50;99.90;;;;;;5048292;28;20087;-82
2022/01/15 09:20:08;;;;;;;27.55;9.55;;;10.50;99.90;;;;;;5044245;28;20593;-82
2022/01/15 09:22:33;;;;;;;25.13;9.32;;;10.50;99.90;;;;;;5049281;28;20027;-83
2022/01/15 09:25:10;;;;;;;15.63;8.73;;;10.50;99.90;;;;;;5034588;28;20029;-83
2022/01/15 09:30:24;;;;;;;18.13;8.75;;;10.60;99.90;;;;;;5050324;28;20088;-81
2022/01/15 09:32:53;;;;;;;15.15;8.35;;;10.70;99.90;;;;;;5046933;28;20108;-82
2022/01/15 09:35:27;;;;;;;13.48;7.93;;;10.70;99.90;;;;;;5034658;28;20036;-82
2022/01/15 09:38:23;;;;;;;15.35;8.35;;;10.70;99.90;;;;;;5043468;28;20490;-82
2022/01/15 09:40:57;;;;;;;13.77;7.68;;;10.70;99.90;;;;;;5019465;28;20096;-81
2022/01/15 09:43:23;;;;;;;10.02;7.38;;;10.70;99.90;;;;;;5041077;28;20417;-82
2022/01/15 09:45:51;;;;;;;12.90;8.20;;;10.80;99.90;;;;;;5052016;28;20047;-82
2022/01/15 09:48:22;;;;;;;16.55;7.90;;;10.80;99.90;;;;;;5044331;28;20100;-82
2022/01/15 09:50:48;;;;;;;30.92;9.02;;;10.80;99.90;;;;;;5029019;28;20483;-81
2022/01/15 09:53:19;;;;;;;22.98;9.20;;;10.90;99.90;;;;;;5042596;28;20113;-81
2022/01/15 09:55:48;;;;;;;12.55;7.82;;;10.90;99.90;;;;;;5048559;28;20068;-82
2022/01/15 09:58:16;;;;;;;26.67;8.82;;;11.00;99.90;;;;;;5043642;28;20104;-82
2022/01/15 10:00:43;;;;;;;20.83;7.97;;;11.10;99.90;;;;;;5057347;28;20075;-82
2022/01/15 10:03:09;;;;;;;9.93;7.10;;;11.10;99.90;;;;;;5045310;28;20063;-83
2022/01/15 10:05:38;;;;;;;11.25;7.50;;;11.10;99.90;;;;;;5036521;28;20021;-81
2022/01/15 10:11:07;;;;;;;12.27;7.25;;;11.20;99.90;;;;;;5034038;28;20063;-83
2022/01/15 10:13:46;;;;;;;9.35;6.05;;;11.30;99.90;;;;;;5059815;28;20045;-82
2022/01/15 10:16:22;;;;;;;14.80;6.07;;;11.40;99.90;;;;;;5043756;28;20626;-81
2022/01/15 10:18:51;;;;;;;10.98;6.03;;;11.40;99.90;;;;;;5047906;28;20074;-82
2022/01/15 10:21:36;;;;;;;9.07;6.13;;;11.50;99.90;;;;;;5050942;28;20507;-82
2022/01/15 10:24:02;;;;;;;9.50;5.80;;;11.60;99.90;;;;;;5046140;28;20108;-81
2022/01/15 10:26:35;;;;;;;10.98;5.90;;;11.70;99.90;;;;;;5031295;28;20547;-82
2022/01/15 10:29:06;;;;;;;8.55;5.40;;;11.70;99.90;;;;;;5025680;28;20024;-82
2022/01/15 10:31:40;;;;;;;9.25;5.53;;;11.70;99.90;;;;;;5053773;28;20095;-82
2022/01/15 10:34:33;;;;;;;7.45;5.72;;;11.80;99.90;;;;;;5038042;28;20013;-81
2022/01/15 10:37:13;;;;;;;7.10;5.22;;;11.80;99.90;;;;;;5037799;28;20484;-82
2022/01/15 10:40:06;;;;;;;7.20;5.18;;;11.80;99.90;;;;;;5044452;28;20032;-82
2022/01/15 10:42:32;;;;;;;8.18;5.72;;;11.90;99.90;;;;;;5037960;28;20028;-82
2022/01/15 10:45:00;;;;;;;5.57;4.65;;;11.90;99.90;;;;;;5048725;28;20031;-82
2022/01/15 10:47:28;;;;;;;7.35;5.07;;;11.90;99.90;;;;;;5044762;28;20115;-83
2022/01/15 10:50:03;;;;;;;6.85;5.20;;;11.90;99.90;;;;;;5042723;28;20025;-82
2022/01/15 10:52:30;;;;;;;7.53;5.25;;;12.00;99.90;;;;;;5032969;28;20054;-87
2022/01/15 10:55:08;;;;;;;6.50;4.88;;;12.00;99.90;;;;;;5033814;28;20044;-81
2022/01/15 10:57:36;;;;;;;6.78;4.40;;;12.10;99.90;;;;;;5022088;28;20480;-81
2022/01/15 11:00:14;;;;;;;10.40;4.50;;;12.10;99.90;;;;;;5037038;28;20037;-81
2022/01/15 11:02:45;;;;;;;5.85;4.32;;;12.20;99.90;;;;;;5031664;28;20041;-82
2022/01/15 11:05:51;;;;;;;9.27;4.57;;;12.30;99.90;;;;;;5034071;28;20056;-83
2022/01/15 11:08:27;;;;;;;4.82;3.92;;;12.30;99.90;;;;;;5045065;28;20028;-82
2022/01/15 11:11:00;;;;;;;7.43;4.30;;;12.40;99.90;;;;;;5054262;28;20025;-82
2022/01/15 11:13:27;;;;;;;7.95;4.30;;;12.50;99.90;;;;;;5042070;28;20104;-81
2022/01/15 11:16:01;;;;;;;6.95;4.40;;;12.60;99.90;;;;;;5032145;28;20069;-82
2022/01/15 11:18:29;;;;;;;5.47;4.15;;;12.70;99.30;;;;;;5043955;28;20024;-82
2022/01/15 11:21:00;;;;;;;6.65;4.22;;;12.60;99.90;;;;;;5037210;28;20041;-82
2022/01/15 11:23:28;;;;;;;6.28;4.88;;;12.60;99.70;;;;;;5024074;28;20034;-82
2022/01/15 11:25:57;;;;;;;6.55;4.40;;;12.60;99.90;;;;;;5045742;28;20057;-82
2022/01/15 11:28:24;;;;;;;5.25;4.22;;;12.70;99.80;;;;;;5039685;28;20063;-82
2022/01/15 11:30:58;;;;;;;5.65;4.75;;;12.70;99.00;;;;;;5020066;28;20029;-82
2022/01/15 11:33:31;;;;;;;6.75;4.32;;;12.70;99.20;;;;;;5026243;28;20120;-80
2022/01/15 11:36:04;;;;;;;5.68;4.20;;;12.70;99.00;;;;;;5046115;28;20036;-83
2022/01/15 11:38:47;;;;;;;9.80;4.55;;;12.70;98.70;;;;;;5027761;28;20559;-82
2022/01/15 11:41:27;;;;;;;;;;;12.80;98.60;;;;;;5030297;28;20028;-82
2022/01/15 11:44:14;;;;;;;5.95;4.15;;;12.80;98.20;;;;;;5021310;28;19917;-82
2022/01/15 11:47:00;;;;;;;6.32;4.95;;;12.90;97.50;;;;;;5037011;28;20107;-82
2022/01/15 11:49:40;;;;;;;5.68;4.88;;;13.00;97.30;;;;;;5045190;28;20487;-82
2022/01/15 11:52:08;;;;;;;7.47;4.70;;;13.00;97.60;;;;;;5046750;28;20486;-82
2022/01/15 11:54:41;;;;;;;8.13;4.60;;;13.10;98.10;;;;;;4991300;28;20401;-82
2022/01/15 11:57:53;;;;;;;7.55;4.28;;;13.10;97.20;;;;;;5005685;28;20089;-82
2022/01/15 12:00:26;;;;;;;5.45;3.95;;;13.20;97.30;;;;;;4994593;28;20022;-82
2022/01/15 12:02:59;;;;;;;6.82;3.85;;;13.20;96.70;;;;;;5018188;28;20570;-82
2022/01/15 12:05:27;;;;;;;5.25;4.28;;;13.30;96.00;;;;;;5012492;28;20053;-82
2022/01/15 12:08:02;;;;;;;6.38;4.25;;;13.20;96.00;;;;;;5009045;28;20034;-82
2022/01/15 12:10:49;;;;;;;6.03;4.30;;;13.30;95.60;;;;;;5008130;28;20021;-82
2022/01/15 12:13:19;;;;;;;5.78;3.83;;;13.40;96.00;;;;;;4999153;28;20030;-82
2022/01/15 12:15:46;;;;;;;4.85;4.00;;;13.40;95.40;;;;;;5004434;28;20041;-82
2022/01/15 12:18:20;;;;;;;12.57;4.60;;;13.40;95.20;;;;;;5005078;28;20069;-82
2022/01/15 12:20:47;;;;;;;4.72;4.13;;;13.40;95.10;;;;;;5004913;28;20034;-82
2022/01/15 12:23:23;;;;;;;6.13;3.90;;;13.40;94.90;;;;;;5014464;28;20388;-83
2022/01/15 12:25:54;;;;;;;6.05;4.15;;;13.50;94.60;;;;;;5005227;28;20050;-82
2022/01/15 12:28:22;;;;;;;5.30;3.88;;;13.50;94.50;;;;;;5003001;28;20026;-83
2022/01/15 12:30:50;;;;;;;5.07;4.05;;;13.60;94.10;;;;;;4993550;28;20019;-82
2022/01/15 12:33:18;;;;;;;6.53;4.50;;;14.00;93.50;;;;;;5005013;28;20034;-82
2022/01/15 12:35:50;;;;;;;5.10;3.80;;;14.90;91.90;;;;;;5001607;28;20042;-83
2022/01/15 12:38:42;;;;;;;5.30;3.95;;;16.00;89.40;;;;;;5002754;28;20105;-83
2022/01/15 12:41:19;;;;;;;5.55;3.85;;;17.70;82.90;;;;;;5009179;28;20041;-82
2022/01/15 12:43:45;;;;;;;7.20;4.68;;;20.60;73.50;;;;;;5000493;28;20559;-83
2022/01/15 12:46:13;;;;;;;6.00;4.03;;;22.60;64.40;;;;;;5010582;28;20033;-83
2022/01/15 12:48:44;;;;;;;6.68;4.80;;;23.70;58.50;;;;;;5004972;28;20133;-83
2022/01/15 12:51:15;;;;;;;5.93;4.10;;;24.30;55.50;;;;;;4999942;28;20013;-83
2022/01/15 12:54:02;;;;;;;4.80;4.00;;;24.90;53.70;;;;;;5015454;28;20474;-83
2022/01/15 12:56:29;;;;;;;5.35;3.88;;;26.10;50.30;;;;;;4994438;28;20117;-83
2022/01/15 12:58:58;;;;;;;5.10;3.72;;;25.90;49.20;;;;;;5000050;28;20081;-83
2022/01/15 13:01:30;;;;;;;4.80;3.40;;;25.60;48.80;;;;;;5006159;28;20065;-83
2022/01/15 13:04:09;;;;;;;5.18;4.18;;;25.40;48.70;;;;;;5016206;28;20029;-84
2022/01/15 13:06:35;;;;;;;4.57;4.03;;;25.00;48.70;;;;;;5003458;28;20546;-83
2022/01/15 13:09:04;;;;;;;6.43;3.90;;;24.90;49.00;;;;;;5033673;28;20033;-83
2022/01/15 13:11:31;;;;;;;6.22;4.20;;;25.10;48.50;;;;;;5013228;28;20030;-82
2022/01/15 13:14:07;;;;;;;5.78;4.50;;;24.90;48.50;;;;;;5004792;28;20041;-82
2022/01/15 13:16:36;;;;;;;5.55;4.40;;;25.10;48.50;;;;;;5004265;28;20059;-86
2022/01/15 13:19:04;;;;;;;6.53;4.07;;;24.80;48.60;;;;;;5033527;28;20511;-85
2022/01/15 13:21:44;;;;;;;5.82;4.20;;;24.90;48.50;;;;;;5020539;28;20533;-83
2022/01/15 13:24:11;;;;;;;5.38;4.55;;;25.00;48.00;;;;;;5033389;28;20032;-84
2022/01/15 13:26:38;;;;;;;5.85;3.80;;;25.10;47.80;;;;;;5033409;28;20021;-83
2022/01/15 13:29:22;;;;;;;6.70;4.05;;;25.00;47.90;;;;;;5033207;28;20052;-84
2022/01/15 13:31:50;;;;;;;4.93;3.80;;;25.00;47.80;;;;;;5022534;28;20160;-84
2022/01/15 13:34:17;;;;;;;4.65;3.78;;;25.10;47.40;;;;;;5033098;28;20075;-84
2022/01/15 13:36:45;;;;;;;4.93;3.55;;;24.90;47.60;;;;;;5033394;28;20025;-84
2022/01/15 13:39:22;;;;;;;4.07;3.55;;;25.00;47.40;;;;;;5032508;28;20392;-84
2022/01/15 13:41:52;;;;;;;4.28;3.63;;;24.80;47.80;;;;;;5046596;28;20018;-84
2022/01/15 13:44:21;;;;;;;5.97;3.53;;;24.80;47.80;;;;;;5035146;28;20049;-83
2022/01/15 13:46:50;;;;;;;4.68;4.05;;;25.50;47.00;;;;;;5028036;28;20087;-84
2022/01/15 13:49:19;;;;;;;4.45;3.47;;;26.30;45.90;;;;;;5043405;28;20005;-84
2022/01/15 13:54:37;;;;;;;5.65;4.00;;;26.00;45.90;;;;;;5043066;28;20419;-84
2022/01/15 13:57:23;;;;;;;4.47;3.67;;;27.00;45.00;;;;;;5033622;28;20358;-83
2022/01/15 13:59:59;;;;;;;4.90;3.58;;;27.40;44.10;;;;;;5024669;28;20025;-84
2022/01/15 14:02:34;;;;;;;3.83;3.45;;;27.50;44.00;;;;;;5010024;28;20042;-84
2022/01/15 14:05:19;;;;;;;4.82;3.50;;;27.40;43.70;;;;;;5033376;28;20025;-83
2022/01/15 14:08:00;;;;;;;3.75;3.38;;;27.20;44.30;;;;;;5032297;28;20029;-83
2022/01/15 14:10:26;;;;;;;4.45;3.30;;;27.30;44.20;;;;;;5015135;28;20029;-83
2022/01/15 14:13:01;;;;;;;5.85;3.45;;;27.40;43.70;;;;;;5014418;28;20131;-83
2022/01/15 14:15:43;;;;;;;6.72;4.75;;;27.40;43.70;;;;;;5024596;28;20033;-82
2022/01/15 14:18:18;;;;;;;3.80;3.50;;;27.00;43.70;;;;;;5014496;28;20079;-83
2022/01/15 14:23:42;;;;;;;6.10;4.07;;;27.00;43.90;;;;;;5032477;28;20495;-84
2022/01/15 14:26:23;;;;;;;7.25;3.70;;;26.60;43.80;;;;;;5032404;28;20025;-84
2022/01/15 14:28:50;;;;;;;6.95;3.90;;;26.10;44.50;;;;;;5020784;28;20112;-83
2022/01/15 14:31:18;;;;;;;4.13;3.60;;;25.30;45.10;;;;;;5014534;28;20029;-83
2022/01/15 14:33:49;;;;;;;4.68;3.78;;;23.90;46.90;;;;;;5014469;28;20029;-83
2022/01/15 14:36:24;;;;;;;4.30;3.90;;;22.40;48.90;;;;;;5032207;28;20065;-83
2022/01/15 14:38:50;;;;;;;10.40;5.18;;;20.70;51.20;;;;;;5000653;28;20484;-83
2022/01/15 14:41:16;;;;;;;5.82;4.38;;;20.00;52.60;;;;;;5032067;28;20040;-82
2022/01/15 14:43:42;;;;;;;5.68;4.22;;;19.50;53.70;;;;;;5031899;28;20025;-83
2022/01/15 14:46:08;;;;;;;5.35;4.03;;;18.90;55.10;;;;;;5032125;28;20033;-83
2022/01/15 14:48:35;;;;;;;5.55;3.85;;;18.20;56.00;;;;;;5031825;28;20021;-83
2022/01/15 14:51:01;;;;;;;6.97;4.38;;;17.90;56.80;;;;;;5031799;28;20388;-83
2022/01/15 14:53:28;;;;;;;5.78;4.40;;;17.80;57.10;;;;;;5031743;28;20431;-84
2022/01/15 14:55:54;;;;;;;5.15;3.78;;;17.60;57.60;;;;;;5031778;28;20530;-83
2022/01/15 14:58:20;;;;;;;5.05;4.10;;;17.00;58.80;;;;;;5031068;28;20100;-83
2022/01/15 15:00:46;;;;;;;4.53;3.67;;;16.50;59.70;;;;;;5031993;28;20120;-83
2022/01/15 15:03:12;;;;;;;8.77;3.95;;;15.90;61.50;;;;;;5031539;28;20041;-83
2022/01/15 15:05:38;;;;;;;5.05;4.22;;;15.30;63.00;;;;;;5031563;28;20040;-83
2022/01/15 15:08:04;;;;;;;5.18;3.97;;;14.80;64.10;;;;;;5005184;28;20029;-82
2022/01/15 15:10:29;;;;;;;5.65;4.35;;;14.40;65.40;;;;;;5002761;28;20069;-83
2022/01/15 15:12:57;;;;;;;6.53;4.47;;;14.20;66.70;;;;;;5029635;28;20112;-83
2022/01/15 15:15:23;;;;;;;4.88;3.97;;;14.20;67.00;;;;;;5032015;28;20029;-83
2022/01/15 15:17:50;;;;;;;5.32;4.15;;;14.10;67.10;;;;;;5030941;28;20033;-83
2022/01/15 15:20:19;;;;;;;5.75;3.90;;;13.80;68.00;;;;;;5031817;28;20021;-83
2022/01/15 15:22:45;;;;;;;5.43;4.25;;;13.60;68.70;;;;;;5006200;28;20034;-83
2022/01/15 15:25:12;;;;;;;7.00;4.78;;;13.40;69.10;;;;;;5003595;28;20028;-83
2022/01/15 15:27:39;;;;;;;7.93;4.65;;;13.20;70.40;;;;;;5027240;28;20464;-84
2022/01/15 15:30:06;;;;;;;6.13;4.43;;;13.00;70.80;;;;;;5031484;28;20104;-83
2022/01/15 15:32:51;;;;;;;6.85;4.50;;;12.70;71.60;;;;;;5030820;28;20104;-83
2022/01/15 15:35:17;;;;;;;5.88;4.50;;;12.50;72.60;;;;;;5030141;28;20034;-84
2022/01/15 15:37:46;;;;;;;7.40;5.03;;;12.30;73.40;;;;;;5030669;28;20104;-83
2022/01/15 15:40:13;;;;;;;7.28;4.18;;;12.10;74.20;;;;;;5031665;28;20026;-82
2022/01/15 15:42:38;;;;;;;5.97;4.88;;;11.90;74.80;;;;;;5005204;28;20477;-84
2022/01/15 15:45:05;;;;;;;6.57;4.93;;;11.80;75.80;;;;;;5004206;28;20036;-83
2022/01/15 15:47:31;;;;;;;7.03;4.80;;;11.60;76.70;;;;;;5025257;28;20431;-83
2022/01/15 15:49:57;;;;;;;11.57;5.10;;;11.40;77.20;;;;;;5031083;28;20083;-83
2022/01/15 15:52:23;;;;;;;5.07;4.38;;;11.30;77.90;;;;;;5012812;28;20032;-84
2022/01/15 15:54:58;;;;;;;9.95;4.60;;;11.20;78.50;;;;;;5011846;28;20045;-86
2022/01/15 15:57:25;;;;;;;9.07;5.88;;;11.10;79.40;;;;;;5029201;28;20025;-82
2022/01/15 15:59:52;;;;;;;8.23;5.47;;;11.00;80.10;;;;;;5029062;28;20025;-85
2022/01/15 16:02:30;;;;;;;9.93;5.28;;;10.90;80.60;;;;;;5013269;28;20165;-84
2022/01/15 16:04:56;;;;;;;8.50;5.47;;;10.80;81.00;;;;;;5006739;28;20113;-84
2022/01/15 16:07:27;;;;;;;11.70;5.13;;;10.70;81.50;;;;;;5030386;28;20136;-83
2022/01/15 16:09:56;;;;;;;7.35;5.03;;;10.60;82.20;;;;;;5022628;28;20093;-82
2022/01/15 16:12:22;;;;;;;7.07;4.95;;;10.60;83.00;;;;;;5024161;28;20017;-82
2022/01/15 16:14:48;;;;;;;7.68;5.30;;;10.50;83.30;;;;;;5025426;28;20037;-82
2022/01/15 16:17:14;;;;;;;7.38;5.22;;;10.40;83.90;;;;;;5013314;28;20480;-82
2022/01/15 16:19:40;;;;;;;7.78;5.03;;;10.30;85.00;;;;;;5031099;28;20021;-81
2022/01/15 16:22:06;;;;;;;6.00;5.07;;;10.30;85.00;;;;;;5030317;28;20052;-82
2022/01/15 16:24:33;;;;;;;7.40;5.30;;;10.30;85.80;;;;;;5031081;28;20112;-84
2022/01/15 16:27:00;;;;;;;10.25;5.60;;;10.20;86.40;;;;;;5008639;28;20017;-83
2022/01/15 16:29:34;;;;;;;7.38;5.30;;;10.10;87.00;;;;;;5030775;28;20033;-83
2022/01/15 16:32:03;;;;;;;7.13;5.35;;;10.10;87.40;;;;;;5007861;28;20022;-83
2022/01/15 16:34:29;;;;;;;6.00;5.00;;;10.00;88.20;;;;;;5030504;28;20036;-83